KHKY

Hickory Regional Airport

Hickory, North Carolina, USA
METAR KHKY 211353Z 23003KT 10SM CLR 20/19 A3018 RMK AO2 SLP202 T02000194
Observed Flight Rules
May-21 @ 13:53 UTC (an hour ago) Visual Flight Rules
Wind Visibility Clouds
230° at 3 knots 10 miles
  • Clear skies
Temperatures Readings
Current 20°C / 68°F
Dewpoint 19°C / 66°F
Humidity 94%
Altimeter 30.18" Hg
Pressure 1020.2 hPa
Elevation 354
METAR KHKY 211353Z 23003KT 10SM CLR 20/19 A3018 RMK AO2 SLP202 T02000194
Observed Flight Rules
May-21 @ 13:53 UTC
(an hour ago)
VFR
Wind Visibility
230° at 3 knots 10 miles
Clouds
  • Clear skies
Temperature Dewpoint
20°C / 68°F 19°C / 66°F
Humidity Altimeter Pressure
94% 30.18" Hg 1020.2 hPa